sensor_id;sensor_type;location;lat;lon;timestamp;pressure;altitude;pressure_sealevel;temperature;humidity
22830;BME280;11581;51.250;6.778;2022-07-22T00:00:55;101689.66;;;20.60;67.70
22830;BME280;11581;51.250;6.778;2022-07-22T00:03:22;101697.78;;;20.60;67.81
22830;BME280;11581;51.250;6.778;2022-07-22T00:05:49;101685.38;;;20.51;67.95
22830;BME280;11581;51.250;6.778;2022-07-22T00:08:16;101692.75;;;20.57;68.04
22830;BME280;11581;51.250;6.778;2022-07-22T00:10:43;101692.28;;;20.53;67.87
22830;BME280;11581;51.250;6.778;2022-07-22T00:13:10;101693.69;;;20.49;68.03
22830;BME280;11581;51.250;6.778;2022-07-22T00:15:38;101694.06;;;20.46;68.14
22830;BME280;11581;51.250;6.778;2022-07-22T00:18:07;101689.88;;;20.44;68.12
22830;BME280;11581;51.250;6.778;2022-07-22T00:20:34;101688.53;;;20.40;68.12
22830;BME280;11581;51.250;6.778;2022-07-22T00:23:01;101682.56;;;20.30;68.27
22830;BME280;11581;51.250;6.778;2022-07-22T00:25:28;101631.97;;;19.86;68.23
22830;BME280;11581;51.250;6.778;2022-07-22T00:27:54;101696.97;;;20.30;68.46
22830;BME280;11581;51.250;6.778;2022-07-22T00:30:22;101577.53;;;19.52;68.83
22830;BME280;11581;51.250;6.778;2022-07-22T00:32:49;101696.69;;;20.25;68.72
22830;BME280;11581;51.250;6.778;2022-07-22T00:35:17;101672.69;;;20.08;69.50
22830;BME280;11581;51.250;6.778;2022-07-22T00:37:45;101692.50;;;20.23;68.72
22830;BME280;11581;51.250;6.778;2022-07-22T00:40:12;101677.88;;;20.09;69.10
22830;BME280;11581;51.250;6.778;2022-07-22T00:42:39;101694.75;;;20.19;68.99
22830;BME280;11581;51.250;6.778;2022-07-22T00:45:07;101701.38;;;20.17;69.11
22830;BME280;11581;51.250;6.778;2022-07-22T00:47:35;101696.97;;;20.16;69.20
22830;BME280;11581;51.250;6.778;2022-07-22T00:50:03;101686.84;;;20.10;69.38
22830;BME280;11581;51.250;6.778;2022-07-22T00:52:33;101693.59;;;20.14;69.64
22830;BME280;11581;51.250;6.778;2022-07-22T00:55:01;101691.09;;;20.12;69.31
22830;BME280;11581;51.250;6.778;2022-07-22T00:57:27;101694.81;;;20.11;69.26
22830;BME280;11581;51.250;6.778;2022-07-22T00:59:54;101693.31;;;20.09;69.54
22830;BME280;11581;51.250;6.778;2022-07-22T01:02:21;101676.31;;;20.00;69.73
22830;BME280;11581;51.250;6.778;2022-07-22T01:04:50;101689.31;;;20.05;69.83
22830;BME280;11581;51.250;6.778;2022-07-22T01:07:17;101686.59;;;20.05;69.55
22830;BME280;11581;51.250;6.778;2022-07-22T01:09:46;101677.81;;;20.03;70.07
22830;BME280;11581;51.250;6.778;2022-07-22T01:12:13;101664.94;;;19.90;69.86
22830;BME280;11581;51.250;6.778;2022-07-22T01:14:41;101684.91;;;20.04;69.64
22830;BME280;11581;51.250;6.778;2022-07-22T01:17:08;101683.03;;;20.04;69.77
22830;BME280;11581;51.250;6.778;2022-07-22T01:19:38;101684.91;;;20.04;69.88
22830;BME280;11581;51.250;6.778;2022-07-22T01:22:07;101687.59;;;20.04;69.83
22830;BME280;11581;51.250;6.778;2022-07-22T01:24:34;101690.13;;;20.05;69.82
22830;BME280;11581;51.250;6.778;2022-07-22T01:27:01;101687.41;;;20.05;69.44
22830;BME280;11581;51.250;6.778;2022-07-22T01:29:28;101683.88;;;20.05;69.73
22830;BME280;11581;51.250;6.778;2022-07-22T01:31:55;101687.22;;;20.07;69.63
22830;BME280;11581;51.250;6.778;2022-07-22T01:34:22;101690.59;;;20.09;69.51
22830;BME280;11581;51.250;6.778;2022-07-22T01:36:51;101677.06;;;20.09;69.40
22830;BME280;11581;51.250;6.778;2022-07-22T01:39:19;101681.44;;;20.10;69.88
22830;BME280;11581;51.250;6.778;2022-07-22T01:41:46;101684.84;;;20.12;69.46
22830;BME280;11581;51.250;6.778;2022-07-22T01:44:13;101607.13;;;19.68;69.77
22830;BME280;11581;51.250;6.778;2022-07-22T01:46:40;101679.06;;;20.15;69.37
22830;BME280;11581;51.250;6.778;2022-07-22T01:49:07;101673.28;;;20.18;69.61
22830;BME280;11581;51.250;6.778;2022-07-22T01:51:37;101683.06;;;20.19;69.31
22830;BME280;11581;51.250;6.778;2022-07-22T01:54:04;101678.31;;;20.21;69.46
22830;BME280;11581;51.250;6.778;2022-07-22T01:56:33;101678.31;;;20.21;69.54
22830;BME280;11581;51.250;6.778;2022-07-22T01:59:00;101680.00;;;20.22;69.26
22830;BME280;11581;51.250;6.778;2022-07-22T02:01:28;101677.09;;;20.23;69.18
22830;BME280;11581;51.250;6.778;2022-07-22T02:03:55;101666.16;;;20.17;69.18
22830;BME280;11581;51.250;6.778;2022-07-22T02:06:23;101670.81;;;20.23;68.97
22830;BME280;11581;51.250;6.778;2022-07-22T02:08:52;101658.22;;;20.15;69.32
22830;BME280;11581;51.250;6.778;2022-07-22T02:11:37;101674.56;;;20.22;69.17
22830;BME280;11581;51.250;6.778;2022-07-22T02:14:05;101675.44;;;20.22;69.09
22830;BME280;11581;51.250;6.778;2022-07-22T02:16:33;101671.88;;;20.22;69.26
22830;BME280;11581;51.250;6.778;2022-07-22T02:18:59;101663.75;;;20.22;69.12
22830;BME280;11581;51.250;6.778;2022-07-22T02:21:26;101626.66;;;19.93;69.06
22830;BME280;11581;51.250;6.778;2022-07-22T02:23:58;101666.44;;;20.22;69.34
22830;BME280;11581;51.250;6.778;2022-07-22T02:26:25;101662.06;;;20.21;69.19
22830;BME280;11581;51.250;6.778;2022-07-22T02:28:54;101666.81;;;20.19;69.14
22830;BME280;11581;51.250;6.778;2022-07-22T02:31:21;101652.03;;;20.07;69.16
22830;BME280;11581;51.250;6.778;2022-07-22T02:33:48;101662.81;;;20.15;68.92
22830;BME280;11581;51.250;6.778;2022-07-22T02:36:15;101670.28;;;20.13;69.33
22830;BME280;11581;51.250;6.778;2022-07-22T02:38:43;101657.78;;;20.12;69.30
22830;BME280;11581;51.250;6.778;2022-07-22T02:41:10;101659.59;;;20.11;69.24
22830;BME280;11581;51.250;6.778;2022-07-22T02:43:44;101663.19;;;20.12;69.42
22830;BME280;11581;51.250;6.778;2022-07-22T02:46:12;101659.44;;;20.13;69.08
22830;BME280;11581;51.250;6.778;2022-07-22T02:48:39;101665.19;;;20.10;69.15
22830;BME280;11581;51.250;6.778;2022-07-22T02:51:10;101661.00;;;20.07;69.08
22830;BME280;11581;51.250;6.778;2022-07-22T02:53:37;101670.34;;;20.05;68.88
22830;BME280;11581;51.250;6.778;2022-07-22T02:56:04;101654.19;;;19.97;68.95
22830;BME280;11581;51.250;6.778;2022-07-22T02:58:32;101648.03;;;19.88;69.22
22830;BME280;11581;51.250;6.778;2022-07-22T03:00:59;101672.09;;;19.98;69.01
22830;BME280;11581;51.250;6.778;2022-07-22T03:03:28;101671.66;;;19.94;69.24
22830;BME280;11581;51.250;6.778;2022-07-22T03:05:55;101668.28;;;19.92;69.24
22830;BME280;11581;51.250;6.778;2022-07-22T03:08:35;101681.19;;;19.90;69.42
22830;BME280;11581;51.250;6.778;2022-07-22T03:11:03;101665.19;;;19.80;69.27
22830;BME280;11581;51.250;6.778;2022-07-22T03:13:30;101672.56;;;19.86;69.44
22830;BME280;11581;51.250;6.778;2022-07-22T03:15:58;101654.66;;;19.71;69.31
22830;BME280;11581;51.250;6.778;2022-07-22T03:18:25;101688.16;;;19.84;69.33
22830;BME280;11581;51.250;6.778;2022-07-22T03:20:53;101667.63;;;19.75;69.53
22830;BME280;11581;51.250;6.778;2022-07-22T03:23:20;101682.91;;;19.83;69.29
22830;BME280;11581;51.250;6.778;2022-07-22T03:25:47;101680.22;;;19.83;69.64
22830;BME280;11581;51.250;6.778;2022-07-22T03:28:14;101643.63;;;19.58;69.48
22830;BME280;11581;51.250;6.778;2022-07-22T03:30:41;101685.00;;;19.81;69.66
22830;BME280;11581;51.250;6.778;2022-07-22T03:33:12;101676.00;;;19.80;69.51
22830;BME280;11581;51.250;6.778;2022-07-22T03:35:40;101677.06;;;19.79;69.49
22830;BME280;11581;51.250;6.778;2022-07-22T03:38:08;101659.94;;;19.64;69.59
22830;BME280;11581;51.250;6.778;2022-07-22T03:40:36;101670.59;;;19.80;69.82
22830;BME280;11581;51.250;6.778;2022-07-22T03:43:04;101670.59;;;19.80;69.71
22830;BME280;11581;51.250;6.778;2022-07-22T03:45:31;101672.28;;;19.81;69.87
22830;BME280;11581;51.250;6.778;2022-07-22T03:47:58;101677.69;;;19.81;69.89
22830;BME280;11581;51.250;6.778;2022-07-22T03:50:29;101673.97;;;19.82;69.65
22830;BME280;11581;51.250;6.778;2022-07-22T03:52:56;101681.06;;;19.83;69.56
22830;BME280;11581;51.250;6.778;2022-07-22T03:55:25;101678.34;;;19.83;69.73
22830;BME280;11581;51.250;6.778;2022-07-22T03:57:54;101677.13;;;19.86;69.81
22830;BME280;11581;51.250;6.778;2022-07-22T04:00:26;101672.28;;;19.81;69.76
22830;BME280;11581;51.250;6.778;2022-07-22T04:02:52;101681.53;;;19.87;69.61
22830;BME280;11581;51.250;6.778;2022-07-22T04:05:46;101682.38;;;19.87;69.33
22830;BME280;11581;51.250;6.778;2022-07-22T04:08:18;101620.28;;;19.57;69.38
22830;BME280;11581;51.250;6.778;2022-07-22T04:10:47;101670.53;;;19.88;69.80
22830;BME280;11581;51.250;6.778;2022-07-22T04:13:14;101666.78;;;19.89;69.31
22830;BME280;11581;51.250;6.778;2022-07-22T04:15:46;101658.66;;;19.89;69.64
22830;BME280;11581;51.250;6.778;2022-07-22T04:18:14;101658.28;;;19.92;69.51
22830;BME280;11581;51.250;6.778;2022-07-22T04:20:43;101667.06;;;19.94;69.53
22830;BME280;11581;51.250;6.778;2022-07-22T04:23:39;101659.59;;;19.97;69.36
22830;BME280;11581;51.250;6.778;2022-07-22T04:26:15;101662.31;;;19.97;69.00
22830;BME280;11581;51.250;6.778;2022-07-22T04:28:41;101662.31;;;19.97;69.02
22830;BME280;11581;51.250;6.778;2022-07-22T04:31:08;101586.59;;;19.45;68.84
22830;BME280;11581;51.250;6.778;2022-07-22T04:33:38;101655.03;;;19.97;68.77
22830;BME280;11581;51.250;6.778;2022-07-22T04:36:06;101663.16;;;19.97;68.79
22830;BME280;11581;51.250;6.778;2022-07-22T04:38:34;101639.06;;;19.87;68.96
22830;BME280;11581;51.250;6.778;2022-07-22T04:41:03;101657.19;;;20.02;68.66
22830;BME280;11581;51.250;6.778;2022-07-22T04:43:32;101643.72;;;19.93;68.61
22830;BME280;11581;51.250;6.778;2022-07-22T04:45:59;101657.19;;;20.02;68.38
22830;BME280;11581;51.250;6.778;2022-07-22T04:48:30;101666.88;;;20.11;68.67
22830;BME280;11581;51.250;6.778;2022-07-22T04:50:59;101656.88;;;20.11;68.44
22830;BME280;11581;51.250;6.778;2022-07-22T04:53:28;101603.41;;;19.69;68.38
22830;BME280;11581;51.250;6.778;2022-07-22T04:55:55;101672.59;;;20.16;67.94
22830;BME280;11581;51.250;6.778;2022-07-22T04:58:22;101670.56;;;20.18;67.87
22830;BME280;11581;51.250;6.778;2022-07-22T05:00:51;101679.50;;;20.18;67.92
22830;BME280;11581;51.250;6.778;2022-07-22T05:03:18;101611.44;;;19.77;68.12
22830;BME280;11581;51.250;6.778;2022-07-22T05:05:46;101645.31;;;20.03;67.96
22830;BME280;11581;51.250;6.778;2022-07-22T05:08:19;101677.91;;;20.24;67.81
22830;BME280;11581;51.250;6.778;2022-07-22T05:10:46;101686.69;;;20.26;67.87
22830;BME280;11581;51.250;6.778;2022-07-22T05:13:13;101675.50;;;20.29;68.12
22830;BME280;11581;51.250;6.778;2022-07-22T05:15:40;101685.94;;;20.32;67.82
22830;BME280;11581;51.250;6.778;2022-07-22T05:18:10;101677.63;;;20.33;67.69
22830;BME280;11581;51.250;6.778;2022-07-22T05:20:37;101668.66;;;20.33;67.54
22830;BME280;11581;51.250;6.778;2022-07-22T05:23:05;101674.00;;;20.41;67.40
22830;BME280;11581;51.250;6.778;2022-07-22T05:25:36;101674.44;;;20.44;67.58
22830;BME280;11581;51.250;6.778;2022-07-22T05:28:03;101659.59;;;20.40;67.38
22830;BME280;11581;51.250;6.778;2022-07-22T05:30:33;101661.06;;;20.43;66.96
22830;BME280;11581;51.250;6.778;2022-07-22T05:33:02;101667.69;;;20.55;67.08
22830;BME280;11581;51.250;6.778;2022-07-22T05:35:51;101665.00;;;20.55;66.18
22830;BME280;11581;51.250;6.778;2022-07-22T05:38:19;101676.34;;;20.65;65.93
22830;BME280;11581;51.250;6.778;2022-07-22T05:40:46;101675.16;;;20.67;66.22
22830;BME280;11581;51.250;6.778;2022-07-22T05:43:14;101671.22;;;20.70;66.11
22830;BME280;11581;51.250;6.778;2022-07-22T05:45:41;101672.31;;;20.75;66.13
22830;BME280;11581;51.250;6.778;2022-07-22T05:48:08;101670.72;;;20.81;65.75
22830;BME280;11581;51.250;6.778;2022-07-22T05:50:35;101665.56;;;20.86;65.36
22830;BME280;11581;51.250;6.778;2022-07-22T05:53:06;101621.72;;;20.61;65.21
22830;BME280;11581;51.250;6.778;2022-07-22T05:55:33;101665.44;;;20.94;64.92
22830;BME280;11581;51.250;6.778;2022-07-22T05:58:00;101671.34;;;20.97;64.98
22830;BME280;11581;51.250;6.778;2022-07-22T06:00:27;101641.47;;;20.76;64.67
22830;BME280;11581;51.250;6.778;2022-07-22T06:02:54;101657.97;;;20.96;64.51
22830;BME280;11581;51.250;6.778;2022-07-22T06:05:21;101667.41;;;21.00;64.27
22830;BME280;11581;51.250;6.778;2022-07-22T06:07:48;101671.41;;;21.04;64.20
22830;BME280;11581;51.250;6.778;2022-07-22T06:10:29;101622.66;;;20.75;64.08
22830;BME280;11581;51.250;6.778;2022-07-22T06:12:56;101672.06;;;21.06;64.42
22830;BME280;11581;51.250;6.778;2022-07-22T06:15:23;101672.72;;;21.08;64.08
22830;BME280;11581;51.250;6.778;2022-07-22T06:17:51;101672.72;;;21.08;64.09
22830;BME280;11581;51.250;6.778;2022-07-22T06:20:18;101680.66;;;21.09;63.94
22830;BME280;11581;51.250;6.778;2022-07-22T06:22:46;101689.41;;;21.11;64.05
22830;BME280;11581;51.250;6.778;2022-07-22T06:25:13;101647.88;;;20.90;63.84
22830;BME280;11581;51.250;6.778;2022-07-22T06:27:41;101681.75;;;21.15;63.93
22830;BME280;11581;51.250;6.778;2022-07-22T06:30:09;101618.97;;;20.76;64.47
22830;BME280;11581;51.250;6.778;2022-07-22T06:32:37;101683.88;;;21.19;64.21
22830;BME280;11581;51.250;6.778;2022-07-22T06:35:05;101669.00;;;21.15;63.91
22830;BME280;11581;51.250;6.778;2022-07-22T06:37:32;101679.16;;;21.28;63.95
22830;BME280;11581;51.250;6.778;2022-07-22T06:40:00;101679.78;;;21.30;64.06
22830;BME280;11581;51.250;6.778;2022-07-22T06:42:43;101654.66;;;21.21;63.32
22830;BME280;11581;51.250;6.778;2022-07-22T06:45:39;101674.66;;;21.41;63.39
22830;BME280;11581;51.250;6.778;2022-07-22T06:48:25;101676.78;;;21.46;63.04
22830;BME280;11581;51.250;6.778;2022-07-22T06:50:53;101661.94;;;21.42;62.82
22830;BME280;11581;51.250;6.778;2022-07-22T06:53:20;101677.06;;;21.51;62.46
22830;BME280;11581;51.250;6.778;2022-07-22T06:55:48;101671.63;;;21.51;62.27
22830;BME280;11581;51.250;6.778;2022-07-22T06:58:16;101668.53;;;21.54;61.56
22830;BME280;11581;51.250;6.778;2022-07-22T07:00:44;101601.38;;;21.14;61.83
22830;BME280;11581;51.250;6.778;2022-07-22T07:03:29;101674.84;;;21.61;61.45
22830;BME280;11581;51.250;6.778;2022-07-22T07:06:00;101651.97;;;21.49;60.88
22830;BME280;11581;51.250;6.778;2022-07-22T07:08:38;101671.94;;;21.62;61.24
22830;BME280;11581;51.250;6.778;2022-07-22T07:11:06;101671.09;;;21.62;61.26
22830;BME280;11581;51.250;6.778;2022-07-22T07:13:34;101633.16;;;21.41;61.09
22830;BME280;11581;51.250;6.778;2022-07-22T07:16:02;101676.97;;;21.65;61.31
22830;BME280;11581;51.250;6.778;2022-07-22T07:18:33;101672.00;;;21.69;61.62
22830;BME280;11581;51.250;6.778;2022-07-22T07:21:03;101675.72;;;21.68;61.24
22830;BME280;11581;51.250;6.778;2022-07-22T07:23:30;101679.63;;;21.80;61.75
22830;BME280;11581;51.250;6.778;2022-07-22T07:25:57;101676.31;;;21.84;61.48
22830;BME280;11581;51.250;6.778;2022-07-22T07:28:24;101664.66;;;21.90;61.51
22830;BME280;11581;51.250;6.778;2022-07-22T07:30:56;101654.66;;;21.98;61.17
22830;BME280;11581;51.250;6.778;2022-07-22T07:33:23;101659.31;;;22.04;61.20
22830;BME280;11581;51.250;6.778;2022-07-22T07:35:51;101665.59;;;22.11;61.21
22830;BME280;11581;51.250;6.778;2022-07-22T07:38:26;101642.16;;;22.03;61.17
22830;BME280;11581;51.250;6.778;2022-07-22T07:40:54;101650.63;;;22.21;60.14
22830;BME280;11581;51.250;6.778;2022-07-22T07:43:21;101657.72;;;22.22;59.98
22830;BME280;11581;51.250;6.778;2022-07-22T07:45:49;101658.97;;;22.20;59.90
22830;BME280;11581;51.250;6.778;2022-07-22T07:48:17;101640.28;;;22.04;59.16
22830;BME280;11581;51.250;6.778;2022-07-22T07:50:44;101651.41;;;22.15;60.02
22830;BME280;11581;51.250;6.778;2022-07-22T07:53:13;101658.66;;;22.02;59.28
22830;BME280;11581;51.250;6.778;2022-07-22T07:55:40;101643.41;;;22.07;59.55
22830;BME280;11581;51.250;6.778;2022-07-22T07:58:07;101637.13;;;22.00;59.64
22830;BME280;11581;51.250;6.778;2022-07-22T08:00:36;101656.81;;;22.09;59.43
22830;BME280;11581;51.250;6.778;2022-07-22T08:03:06;101656.38;;;22.05;59.35
22830;BME280;11581;51.250;6.778;2022-07-22T08:05:37;101658.00;;;21.99;59.15
22830;BME280;11581;51.250;6.778;2022-07-22T08:08:10;101659.66;;;21.94;59.70
22830;BME280;11581;51.250;6.778;2022-07-22T08:10:37;101648.75;;;21.87;59.86
22830;BME280;11581;51.250;6.778;2022-07-22T08:13:10;101652.06;;;21.83;59.64
22830;BME280;11581;51.250;6.778;2022-07-22T08:15:42;101649.69;;;21.73;59.49
22830;BME280;11581;51.250;6.778;2022-07-22T08:18:16;101659.97;;;21.78;59.96
22830;BME280;11581;51.250;6.778;2022-07-22T08:20:44;101636.44;;;21.64;59.76
22830;BME280;11581;51.250;6.778;2022-07-22T08:23:11;101664.13;;;21.74;59.93
22830;BME280;11581;51.250;6.778;2022-07-22T08:25:41;101659.03;;;21.71;59.85
22830;BME280;11581;51.250;6.778;2022-07-22T08:28:08;101664.28;;;21.72;59.99
22830;BME280;11581;51.250;6.778;2022-07-22T08:30:35;101664.97;;;21.74;60.25
22830;BME280;11581;51.250;6.778;2022-07-22T08:33:02;101567.28;;;21.26;59.94
22830;BME280;11581;51.250;6.778;2022-07-22T08:35:29;101646.63;;;21.83;59.97
22830;BME280;11581;51.250;6.778;2022-07-22T08:37:59;101662.16;;;21.95;58.90
22830;BME280;11581;51.250;6.778;2022-07-22T08:40:26;101658.44;;;22.03;59.75
22830;BME280;11581;51.250;6.778;2022-07-22T08:42:54;101657.25;;;22.12;58.68
22830;BME280;11581;51.250;6.778;2022-07-22T08:45:22;101649.94;;;22.13;58.60
22830;BME280;11581;51.250;6.778;2022-07-22T08:47:51;101584.88;;;21.64;58.16
22830;BME280;11581;51.250;6.778;2022-07-22T08:50:37;101669.69;;;22.34;58.65
22830;BME280;11581;51.250;6.778;2022-07-22T08:53:31;101668.91;;;22.40;57.47
22830;BME280;11581;51.250;6.778;2022-07-22T08:56:05;101637.91;;;22.28;57.70
22830;BME280;11581;51.250;6.778;2022-07-22T08:58:32;101672.88;;;22.44;57.67
22830;BME280;11581;51.250;6.778;2022-07-22T09:01:07;101666.59;;;22.37;56.26
22830;BME280;11581;51.250;6.778;2022-07-22T09:03:44;101672.84;;;22.38;56.38
22830;BME280;11581;51.250;6.778;2022-07-22T09:06:13;101663.19;;;22.29;57.00
22830;BME280;11581;51.250;6.778;2022-07-22T09:08:55;101662.50;;;22.20;56.23
22830;BME280;11581;51.250;6.778;2022-07-22T09:11:41;101674.88;;;22.23;57.18
22830;BME280;11581;51.250;6.778;2022-07-22T09:14:43;101671.72;;;22.19;56.50
22830;BME280;11581;51.250;6.778;2022-07-22T09:17:32;101657.88;;;22.14;56.95
22830;BME280;11581;51.250;6.778;2022-07-22T09:20:39;101659.78;;;22.20;57.18
22830;BME280;11581;51.250;6.778;2022-07-22T09:23:25;101658.13;;;22.19;57.64
22830;BME280;11581;51.250;6.778;2022-07-22T09:25:56;101660.59;;;22.14;57.32
22830;BME280;11581;51.250;6.778;2022-07-22T09:28:27;101666.28;;;22.19;57.43
22830;BME280;11581;51.250;6.778;2022-07-22T09:31:23;101664.19;;;22.21;56.68
22830;BME280;11581;51.250;6.778;2022-07-22T09:33:54;101661.09;;;22.24;57.65
22830;BME280;11581;51.250;6.778;2022-07-22T09:36:26;101671.56;;;22.27;57.56
22830;BME280;11581;51.250;6.778;2022-07-22T09:38:55;101682.00;;;22.30;57.36
22830;BME280;11581;51.250;6.778;2022-07-22T09:41:24;101686.00;;;22.34;57.24
22830;BME280;11581;51.250;6.778;2022-07-22T09:43:51;101688.75;;;22.41;57.20
22830;BME280;11581;51.250;6.778;2022-07-22T09:46:34;101685.63;;;22.44;55.81
22830;BME280;11581;51.250;6.778;2022-07-22T09:49:32;101682.50;;;22.47;55.87
22830;BME280;11581;51.250;6.778;2022-07-22T09:52:19;101680.25;;;22.50;57.01
22830;BME280;11581;51.250;6.778;2022-07-22T09:55:01;101690.72;;;22.53;56.99
22830;BME280;11581;51.250;6.778;2022-07-22T09:57:29;101676.72;;;22.56;56.38
22830;BME280;11581;51.250;6.778;2022-07-22T09:59:56;101643.59;;;22.46;56.69
22830;BME280;11581;51.250;6.778;2022-07-22T10:02:41;101668.56;;;22.56;56.29
22830;BME280;11581;51.250;6.778;2022-07-22T10:05:12;101656.66;;;22.57;56.12
22830;BME280;11581;51.250;6.778;2022-07-22T10:07:41;101659.16;;;22.65;56.46
22830;BME280;11581;51.250;6.778;2022-07-22T10:10:10;101642.88;;;22.65;56.73
22830;BME280;11581;51.250;6.778;2022-07-22T10:12:40;101655.47;;;22.79;55.55
22830;BME280;11581;51.250;6.778;2022-07-22T10:15:09;101657.38;;;22.85;56.22
22830;BME280;11581;51.250;6.778;2022-07-22T10:17:39;101647.34;;;22.92;55.81
22830;BME280;11581;51.250;6.778;2022-07-22T10:20:09;101649.84;;;23.00;55.23
22830;BME280;11581;51.250;6.778;2022-07-22T10:22:51;101649.25;;;23.11;54.43
22830;BME280;11581;51.250;6.778;2022-07-22T10:25:20;101644.66;;;23.25;55.59
22830;BME280;11581;51.250;6.778;2022-07-22T10:27:50;101632.56;;;23.40;54.63
22830;BME280;11581;51.250;6.778;2022-07-22T10:30:20;101627.91;;;23.60;54.95
22830;BME280;11581;51.250;6.778;2022-07-22T10:33:02;101570.13;;;23.52;54.08
22830;BME280;11581;51.250;6.778;2022-07-22T10:35:30;101611.53;;;23.99;54.89
22830;BME280;11581;51.250;6.778;2022-07-22T10:38:04;101611.84;;;24.23;53.40
22830;BME280;11581;51.250;6.778;2022-07-22T10:40:47;101615.88;;;24.58;52.31
22830;BME280;11581;51.250;6.778;2022-07-22T10:43:18;101604.91;;;24.77;53.00
22830;BME280;11581;51.250;6.778;2022-07-22T10:45:47;101615.97;;;25.13;52.87
22830;BME280;11581;51.250;6.778;2022-07-22T10:48:20;101591.47;;;25.31;51.56
22830;BME280;11581;51.250;6.778;2022-07-22T10:50:49;101608.19;;;25.84;51.84
22830;BME280;11581;51.250;6.778;2022-07-22T10:53:21;101608.34;;;26.25;49.63
22830;BME280;11581;51.250;6.778;2022-07-22T10:56:01;101606.13;;;26.81;49.50
22830;BME280;11581;51.250;6.778;2022-07-22T10:58:50;101603.78;;;27.49;49.62
22830;BME280;11581;51.250;6.778;2022-07-22T11:01:20;101613.97;;;28.23;48.84
22830;BME280;11581;51.250;6.778;2022-07-22T11:03:48;101618.63;;;28.90;47.94
22830;BME280;11581;51.250;6.778;2022-07-22T11:06:18;101624.09;;;29.51;47.08
22830;BME280;11581;51.250;6.778;2022-07-22T11:08:49;101612.91;;;30.12;44.00
22830;BME280;11581;51.250;6.778;2022-07-22T11:11:17;101595.66;;;30.65;43.19
22830;BME280;11581;51.250;6.778;2022-07-22T11:13:46;101603.50;;;31.04;41.65
22830;BME280;11581;51.250;6.778;2022-07-22T11:16:16;101593.22;;;31.26;40.35
22830;BME280;11581;51.250;6.778;2022-07-22T11:18:45;101601.16;;;31.49;40.52
22830;BME280;11581;51.250;6.778;2022-07-22T11:21:14;101516.78;;;31.07;39.06
22830;BME280;11581;51.250;6.778;2022-07-22T11:23:42;101590.19;;;31.59;38.50
22830;BME280;11581;51.250;6.778;2022-07-22T11:26:13;101595.16;;;31.57;37.18
22830;BME280;11581;51.250;6.778;2022-07-22T11:28:42;101591.22;;;31.48;37.59
22830;BME280;11581;51.250;6.778;2022-07-22T11:31:14;101585.84;;;31.27;35.89
22830;BME280;11581;51.250;6.778;2022-07-22T11:33:42;101555.56;;;30.74;37.92
22830;BME280;11581;51.250;6.778;2022-07-22T11:36:10;101593.31;;;30.73;37.69
22830;BME280;11581;51.250;6.778;2022-07-22T11:38:42;101544.28;;;30.22;36.45
22830;BME280;11581;51.250;6.778;2022-07-22T11:41:09;101583.34;;;30.24;38.71
22830;BME280;11581;51.250;6.778;2022-07-22T11:43:40;101585.28;;;30.02;37.32
22830;BME280;11581;51.250;6.778;2022-07-22T11:46:08;101577.31;;;29.84;39.30
22830;BME280;11581;51.250;6.778;2022-07-22T11:48:36;101578.69;;;29.65;39.87
22830;BME280;11581;51.250;6.778;2022-07-22T11:51:07;101579.84;;;29.69;39.39
22830;BME280;11581;51.250;6.778;2022-07-22T11:53:35;101587.34;;;29.73;40.11
22830;BME280;11581;51.250;6.778;2022-07-22T11:56:04;101490.81;;;29.32;40.04
22830;BME280;11581;51.250;6.778;2022-07-22T11:58:39;101567.66;;;30.03;39.18
22830;BME280;11581;51.250;6.778;2022-07-22T12:01:09;101558.16;;;30.32;41.01
22830;BME280;11581;51.250;6.778;2022-07-22T12:03:39;101557.44;;;30.68;39.00
22830;BME280;11581;51.250;6.778;2022-07-22T12:06:09;101539.53;;;30.97;38.78
22830;BME280;11581;51.250;6.778;2022-07-22T12:08:40;101559.72;;;31.34;36.03
22830;BME280;11581;51.250;6.778;2022-07-22T12:11:08;101547.88;;;31.39;37.21
22830;BME280;11581;51.250;6.778;2022-07-22T12:13:35;101550.94;;;31.42;37.22
22830;BME280;11581;51.250;6.778;2022-07-22T12:16:17;101543.44;;;31.33;36.22
22830;BME280;11581;51.250;6.778;2022-07-22T12:18:50;101533.22;;;31.28;35.61
22830;BME280;11581;51.250;6.778;2022-07-22T12:21:18;101496.06;;;31.04;37.78
22830;BME280;11581;51.250;6.778;2022-07-22T12:23:54;101535.03;;;31.18;35.28
22830;BME280;11581;51.250;6.778;2022-07-22T12:26:44;101541.41;;;31.23;36.02
22830;BME280;11581;51.250;6.778;2022-07-22T12:29:15;101530.34;;;31.18;36.39
22830;BME280;11581;51.250;6.778;2022-07-22T12:31:43;101532.28;;;31.18;36.84
22830;BME280;11581;51.250;6.778;2022-07-22T12:34:12;101502.09;;;31.01;36.40
22830;BME280;11581;51.250;6.778;2022-07-22T12:36:43;101527.69;;;31.28;36.03
22830;BME280;11581;51.250;6.778;2022-07-22T12:39:14;101536.03;;;31.38;36.83
22830;BME280;11581;51.250;6.778;2022-07-22T12:41:46;101524.50;;;31.46;34.82
22830;BME280;11581;51.250;6.778;2022-07-22T12:44:21;101437.13;;;31.00;34.31
22830;BME280;11581;51.250;6.778;2022-07-22T12:46:50;101513.53;;;31.56;36.57
22830;BME280;11581;51.250;6.778;2022-07-22T12:49:21;101518.53;;;31.64;34.85
22830;BME280;11581;51.250;6.778;2022-07-22T12:52:09;101511.16;;;31.75;35.44
22830;BME280;11581;51.250;6.778;2022-07-22T12:54:38;101491.00;;;31.74;35.76
22830;BME280;11581;51.250;6.778;2022-07-22T12:57:08;101458.47;;;31.71;35.52
22830;BME280;11581;51.250;6.778;2022-07-22T12:59:36;101509.78;;;32.39;35.82
22830;BME280;11581;51.250;6.778;2022-07-22T13:02:03;101506.22;;;32.64;34.65
22830;BME280;11581;51.250;6.778;2022-07-22T13:04:32;101502.88;;;32.82;33.62
22830;BME280;11581;51.250;6.778;2022-07-22T13:06:59;101473.06;;;32.74;33.27